sensor_id;sensor_type;location;lat;lon;timestamp;temperature;humidity
32147;DHT22;32190;49.112;8.598;2023-07-20T00:04:15;28.20;34.80
32147;DHT22;32190;49.112;8.598;2023-07-20T00:10:06;28.10;34.80
32147;DHT22;32190;49.112;8.598;2023-07-20T00:15:56;28.00;34.80
32147;DHT22;32190;49.112;8.598;2023-07-20T00:21:47;27.90;34.90
32147;DHT22;32190;49.112;8.598;2023-07-20T00:27:38;27.80;35.00
32147;DHT22;32190;49.112;8.598;2023-07-20T00:33:28;27.80;35.20
32147;DHT22;32190;49.112;8.598;2023-07-20T00:39:19;27.70;35.20
32147;DHT22;32190;49.112;8.598;2023-07-20T00:45:09;27.70;35.20
32147;DHT22;32190;49.112;8.598;2023-07-20T00:51:00;27.60;35.30
32147;DHT22;32190;49.112;8.598;2023-07-20T00:56:53;27.50;35.30
32147;DHT22;32190;49.112;8.598;2023-07-20T01:02:45;27.50;35.30
32147;DHT22;32190;49.112;8.598;2023-07-20T01:08:45;27.50;35.40
32147;DHT22;32190;49.112;8.598;2023-07-20T01:14:38;27.30;35.40
32147;DHT22;32190;49.112;8.598;2023-07-20T01:20:31;27.30;35.40
32147;DHT22;32190;49.112;8.598;2023-07-20T01:32:25;27.20;35.70
32147;DHT22;32190;49.112;8.598;2023-07-20T01:38:16;27.10;35.70
32147;DHT22;32190;49.112;8.598;2023-07-20T01:44:08;27.00;35.80
32147;DHT22;32190;49.112;8.598;2023-07-20T01:49:58;27.00;36.00
32147;DHT22;32190;49.112;8.598;2023-07-20T01:55:49;26.90;36.10
32147;DHT22;32190;49.112;8.598;2023-07-20T02:01:40;26.80;36.20
32147;DHT22;32190;49.112;8.598;2023-07-20T02:07:30;26.70;36.20
32147;DHT22;32190;49.112;8.598;2023-07-20T02:13:21;26.60;36.30
32147;DHT22;32190;49.112;8.598;2023-07-20T02:19:14;26.40;36.40
32147;DHT22;32190;49.112;8.598;2023-07-20T02:25:05;26.30;36.70
32147;DHT22;32190;49.112;8.598;2023-07-20T02:30:56;26.20;36.60
32147;DHT22;32190;49.112;8.598;2023-07-20T02:36:46;26.20;36.80
32147;DHT22;32190;49.112;8.598;2023-07-20T02:42:38;26.10;36.80
32147;DHT22;32190;49.112;8.598;2023-07-20T02:48:29;26.00;36.90
32147;DHT22;32190;49.112;8.598;2023-07-20T02:54:19;25.90;37.00
32147;DHT22;32190;49.112;8.598;2023-07-20T03:00:10;25.90;37.10
32147;DHT22;32190;49.112;8.598;2023-07-20T03:06:02;25.90;37.10
32147;DHT22;32190;49.112;8.598;2023-07-20T03:11:52;25.80;37.20
32147;DHT22;32190;49.112;8.598;2023-07-20T03:17:43;25.60;37.20
32147;DHT22;32190;49.112;8.598;2023-07-20T03:23:33;25.60;37.30
32147;DHT22;32190;49.112;8.598;2023-07-20T03:29:24;25.60;37.50
32147;DHT22;32190;49.112;8.598;2023-07-20T03:35:14;25.40;37.50
32147;DHT22;32190;49.112;8.598;2023-07-20T03:41:06;25.40;37.70
32147;DHT22;32190;49.112;8.598;2023-07-20T03:46:56;25.30;37.90
32147;DHT22;32190;49.112;8.598;2023-07-20T03:52:47;25.30;38.00
32147;DHT22;32190;49.112;8.598;2023-07-20T03:58:38;25.20;38.00
32147;DHT22;32190;49.112;8.598;2023-07-20T04:04:29;25.20;38.00
32147;DHT22;32190;49.112;8.598;2023-07-20T04:10:19;25.20;38.00
32147;DHT22;32190;49.112;8.598;2023-07-20T04:16:10;25.20;38.10
32147;DHT22;32190;49.112;8.598;2023-07-20T04:22:00;25.20;38.20
32147;DHT22;32190;49.112;8.598;2023-07-20T04:27:51;25.20;38.20
32147;DHT22;32190;49.112;8.598;2023-07-20T04:33:42;25.20;38.20
32147;DHT22;32190;49.112;8.598;2023-07-20T04:39:32;25.30;38.20
32147;DHT22;32190;49.112;8.598;2023-07-20T04:45:23;25.30;38.20
32147;DHT22;32190;49.112;8.598;2023-07-20T04:51:14;25.40;38.30
32147;DHT22;32190;49.112;8.598;2023-07-20T04:57:11;25.40;38.30
32147;DHT22;32190;49.112;8.598;2023-07-20T05:03:02;25.40;38.30
32147;DHT22;32190;49.112;8.598;2023-07-20T05:08:52;25.40;38.20
32147;DHT22;32190;49.112;8.598;2023-07-20T05:14:43;25.40;38.40
32147;DHT22;32190;49.112;8.598;2023-07-20T05:20:34;25.50;38.50
32147;DHT22;32190;49.112;8.598;2023-07-20T05:26:25;25.40;38.40
32147;DHT22;32190;49.112;8.598;2023-07-20T05:32:15;25.50;38.40
32147;DHT22;32190;49.112;8.598;2023-07-20T05:38:06;25.50;38.40
32147;DHT22;32190;49.112;8.598;2023-07-20T05:43:56;25.70;38.60
32147;DHT22;32190;49.112;8.598;2023-07-20T05:49:47;26.10;38.80
32147;DHT22;32190;49.112;8.598;2023-07-20T05:55:38;26.30;38.40
32147;DHT22;32190;49.112;8.598;2023-07-20T06:01:29;26.90;38.80
32147;DHT22;32190;49.112;8.598;2023-07-20T06:07:20;27.90;38.90
32147;DHT22;32190;49.112;8.598;2023-07-20T06:13:10;29.10;38.40
32147;DHT22;32190;49.112;8.598;2023-07-20T06:19:01;30.00;37.60
32147;DHT22;32190;49.112;8.598;2023-07-20T06:24:51;30.40;36.60
32147;DHT22;32190;49.112;8.598;2023-07-20T06:30:42;30.50;36.30
32147;DHT22;32190;49.112;8.598;2023-07-20T06:36:32;30.50;35.90
32147;DHT22;32190;49.112;8.598;2023-07-20T06:42:23;30.90;36.10
32147;DHT22;32190;49.112;8.598;2023-07-20T06:48:13;31.50;35.80
32147;DHT22;32190;49.112;8.598;2023-07-20T06:54:04;31.80;35.40
32147;DHT22;32190;49.112;8.598;2023-07-20T06:59:55;32.30;35.30
32147;DHT22;32190;49.112;8.598;2023-07-20T07:05:45;32.50;34.80
32147;DHT22;32190;49.112;8.598;2023-07-20T07:11:36;32.30;34.50
32147;DHT22;32190;49.112;8.598;2023-07-20T07:17:26;32.00;34.40
32147;DHT22;32190;49.112;8.598;2023-07-20T07:23:17;31.80;34.40
32147;DHT22;32190;49.112;8.598;2023-07-20T07:29:08;31.60;34.50
32147;DHT22;32190;49.112;8.598;2023-07-20T07:34:59;31.30;34.60
32147;DHT22;32190;49.112;8.598;2023-07-20T07:40:50;31.10;34.60
32147;DHT22;32190;49.112;8.598;2023-07-20T07:46:41;30.80;34.70
32147;DHT22;32190;49.112;8.598;2023-07-20T07:52:32;30.60;34.80
32147;DHT22;32190;49.112;8.598;2023-07-20T07:58:23;30.30;34.90
32147;DHT22;32190;49.112;8.598;2023-07-20T08:04:13;30.10;35.00
32147;DHT22;32190;49.112;8.598;2023-07-20T08:10:05;29.80;35.20
32147;DHT22;32190;49.112;8.598;2023-07-20T08:15:55;29.70;35.50
32147;DHT22;32190;49.112;8.598;2023-07-20T08:21:46;29.50;35.50
32147;DHT22;32190;49.112;8.598;2023-07-20T08:27:37;29.30;35.60
32147;DHT22;32190;49.112;8.598;2023-07-20T08:33:27;29.20;35.70
32147;DHT22;32190;49.112;8.598;2023-07-20T08:39:20;29.00;35.80
32147;DHT22;32190;49.112;8.598;2023-07-20T08:45:13;28.80;35.90
32147;DHT22;32190;49.112;8.598;2023-07-20T08:51:04;28.70;36.20
32147;DHT22;32190;49.112;8.598;2023-07-20T08:56:56;28.70;36.40
32147;DHT22;32190;49.112;8.598;2023-07-20T09:02:51;28.70;36.30
32147;DHT22;32190;49.112;8.598;2023-07-20T09:08:42;28.70;36.30
32147;DHT22;32190;49.112;8.598;2023-07-20T09:14:32;28.70;36.30
32147;DHT22;32190;49.112;8.598;2023-07-20T09:20:31;28.60;36.30
32147;DHT22;32190;49.112;8.598;2023-07-20T09:26:22;28.60;36.60
32147;DHT22;32190;49.112;8.598;2023-07-20T09:32:21;28.50;36.60
32147;DHT22;32190;49.112;8.598;2023-07-20T09:38:11;28.40;36.40
32147;DHT22;32190;49.112;8.598;2023-07-20T09:44:02;28.40;36.50
32147;DHT22;32190;49.112;8.598;2023-07-20T09:49:59;28.40;36.20
32147;DHT22;32190;49.112;8.598;2023-07-20T09:55:53;28.30;36.30
32147;DHT22;32190;49.112;8.598;2023-07-20T10:01:46;28.30;36.40
32147;DHT22;32190;49.112;8.598;2023-07-20T10:07:47;28.30;36.10
32147;DHT22;32190;49.112;8.598;2023-07-20T10:13:39;28.30;35.80
32147;DHT22;32190;49.112;8.598;2023-07-20T10:19:47;28.30;36.30
32147;DHT22;32190;49.112;8.598;2023-07-20T10:25:40;28.40;36.10
32147;DHT22;32190;49.112;8.598;2023-07-20T10:31:34;28.60;35.60
32147;DHT22;32190;49.112;8.598;2023-07-20T10:37:47;28.60;35.70
32147;DHT22;32190;49.112;8.598;2023-07-20T10:43:45;28.70;34.90
32147;DHT22;32190;49.112;8.598;2023-07-20T10:49:59;28.80;35.20
32147;DHT22;32190;49.112;8.598;2023-07-20T10:56:08;28.90;35.40
32147;DHT22;32190;49.112;8.598;2023-07-20T11:01:59;29.00;34.90
32147;DHT22;32190;49.112;8.598;2023-07-20T11:07:51;29.20;34.90
32147;DHT22;32190;49.112;8.598;2023-07-20T11:14:03;29.20;34.30
32147;DHT22;32190;49.112;8.598;2023-07-20T11:19:59;29.20;33.60
32147;DHT22;32190;49.112;8.598;2023-07-20T11:25:51;29.20;34.50
32147;DHT22;32190;49.112;8.598;2023-07-20T11:31:42;29.20;34.00
32147;DHT22;32190;49.112;8.598;2023-07-20T11:37:33;29.30;35.10
32147;DHT22;32190;49.112;8.598;2023-07-20T11:43:24;29.40;34.40
32147;DHT22;32190;49.112;8.598;2023-07-20T11:49:16;29.60;34.00
32147;DHT22;32190;49.112;8.598;2023-07-20T11:55:07;29.60;33.90
32147;DHT22;32190;49.112;8.598;2023-07-20T12:00:58;29.70;34.10
32147;DHT22;32190;49.112;8.598;2023-07-20T12:06:49;29.90;34.20
32147;DHT22;32190;49.112;8.598;2023-07-20T12:12:44;30.00;34.00
32147;DHT22;32190;49.112;8.598;2023-07-20T12:18:35;30.10;33.70
32147;DHT22;32190;49.112;8.598;2023-07-20T12:24:26;30.30;34.00
32147;DHT22;32190;49.112;8.598;2023-07-20T12:30:17;30.40;33.80
32147;DHT22;32190;49.112;8.598;2023-07-20T12:36:09;30.70;33.80
32147;DHT22;32190;49.112;8.598;2023-07-20T12:41:59;30.80;33.80
32147;DHT22;32190;49.112;8.598;2023-07-20T12:47:50;31.00;33.50
32147;DHT22;32190;49.112;8.598;2023-07-20T12:53:40;31.00;32.90
32147;DHT22;32190;49.112;8.598;2023-07-20T12:59:31;31.10;32.30
32147;DHT22;32190;49.112;8.598;2023-07-20T13:05:21;31.30;32.20
32147;DHT22;32190;49.112;8.598;2023-07-20T13:11:12;31.40;32.00
32147;DHT22;32190;49.112;8.598;2023-07-20T13:17:02;31.50;31.70
32147;DHT22;32190;49.112;8.598;2023-07-20T13:22:53;31.50;32.00
32147;DHT22;32190;49.112;8.598;2023-07-20T13:28:44;31.50;31.30
32147;DHT22;32190;49.112;8.598;2023-07-20T13:34:35;31.50;31.50
32147;DHT22;32190;49.112;8.598;2023-07-20T13:40:25;31.60;31.00
32147;DHT22;32190;49.112;8.598;2023-07-20T13:46:16;31.60;30.60
32147;DHT22;32190;49.112;8.598;2023-07-20T13:52:07;31.50;31.30
32147;DHT22;32190;49.112;8.598;2023-07-20T13:57:57;31.60;31.00
32147;DHT22;32190;49.112;8.598;2023-07-20T14:03:48;31.80;31.40
32147;DHT22;32190;49.112;8.598;2023-07-20T14:09:39;31.90;30.90
32147;DHT22;32190;49.112;8.598;2023-07-20T14:15:29;32.00;30.70
32147;DHT22;32190;49.112;8.598;2023-07-20T14:21:20;32.10;30.50
32147;DHT22;32190;49.112;8.598;2023-07-20T14:27:11;32.20;30.00
32147;DHT22;32190;49.112;8.598;2023-07-20T14:33:02;32.20;30.00
32147;DHT22;32190;49.112;8.598;2023-07-20T14:38:53;32.20;30.60
32147;DHT22;32190;49.112;8.598;2023-07-20T14:44:43;32.30;30.30
32147;DHT22;32190;49.112;8.598;2023-07-20T14:50:34;32.30;30.60
32147;DHT22;32190;49.112;8.598;2023-07-20T14:56:25;32.50;30.40
32147;DHT22;32190;49.112;8.598;2023-07-20T15:02:16;32.70;29.80
32147;DHT22;32190;49.112;8.598;2023-07-20T15:08:07;32.70;29.80
32147;DHT22;32190;49.112;8.598;2023-07-20T15:13:58;32.70;29.90
32147;DHT22;32190;49.112;8.598;2023-07-20T15:19:49;32.90;29.90
32147;DHT22;32190;49.112;8.598;2023-07-20T15:25:39;33.10;28.90
32147;DHT22;32190;49.112;8.598;2023-07-20T15:31:30;33.10;29.00
32147;DHT22;32190;49.112;8.598;2023-07-20T15:37:20;33.20;29.40
32147;DHT22;32190;49.112;8.598;2023-07-20T15:43:11;33.40;29.50
32147;DHT22;32190;49.112;8.598;2023-07-20T15:49:02;33.70;29.30
32147;DHT22;32190;49.112;8.598;2023-07-20T15:54:52;34.00;28.80
32147;DHT22;32190;49.112;8.598;2023-07-20T16:00:43;34.10;28.90
32147;DHT22;32190;49.112;8.598;2023-07-20T16:06:33;34.00;29.00
32147;DHT22;32190;49.112;8.598;2023-07-20T16:12:25;34.00;28.80
32147;DHT22;32190;49.112;8.598;2023-07-20T16:18:18;34.00;28.60
32147;DHT22;32190;49.112;8.598;2023-07-20T16:24:09;34.00;28.80
32147;DHT22;32190;49.112;8.598;2023-07-20T16:30:00;34.00;29.00
32147;DHT22;32190;49.112;8.598;2023-07-20T16:35:52;34.00;29.10
32147;DHT22;32190;49.112;8.598;2023-07-20T16:41:42;34.00;29.30
32147;DHT22;32190;49.112;8.598;2023-07-20T16:47:33;34.10;29.30
32147;DHT22;32190;49.112;8.598;2023-07-20T16:53:24;34.10;29.10
32147;DHT22;32190;49.112;8.598;2023-07-20T16:59:14;34.10;28.80
32147;DHT22;32190;49.112;8.598;2023-07-20T17:05:07;34.00;28.60
32147;DHT22;32190;49.112;8.598;2023-07-20T17:11:03;34.00;29.00
32147;DHT22;32190;49.112;8.598;2023-07-20T17:16:53;33.90;29.00
32147;DHT22;32190;49.112;8.598;2023-07-20T17:22:44;33.90;28.60
32147;DHT22;32190;49.112;8.598;2023-07-20T17:28:35;33.70;28.60
32147;DHT22;32190;49.112;8.598;2023-07-20T17:34:25;33.70;28.70
32147;DHT22;32190;49.112;8.598;2023-07-20T17:40:16;33.70;29.00
32147;DHT22;32190;49.112;8.598;2023-07-20T17:46:08;33.60;28.90
32147;DHT22;32190;49.112;8.598;2023-07-20T17:51:59;33.50;29.00
32147;DHT22;32190;49.112;8.598;2023-07-20T17:57:50;33.40;29.30
32147;DHT22;32190;49.112;8.598;2023-07-20T18:03:41;33.40;29.20
32147;DHT22;32190;49.112;8.598;2023-07-20T18:09:32;33.40;29.30
32147;DHT22;32190;49.112;8.598;2023-07-20T18:15:22;33.30;29.30
32147;DHT22;32190;49.112;8.598;2023-07-20T18:21:13;33.20;29.40
32147;DHT22;32190;49.112;8.598;2023-07-20T18:27:04;33.10;29.50
32147;DHT22;32190;49.112;8.598;2023-07-20T18:32:54;33.00;29.60
32147;DHT22;32190;49.112;8.598;2023-07-20T18:38:45;33.00;29.80
32147;DHT22;32190;49.112;8.598;2023-07-20T18:44:35;32.90;29.90
32147;DHT22;32190;49.112;8.598;2023-07-20T18:50:26;32.80;30.00
32147;DHT22;32190;49.112;8.598;2023-07-20T18:56:18;32.80;30.10
32147;DHT22;32190;49.112;8.598;2023-07-20T19:02:08;32.60;30.10
32147;DHT22;32190;49.112;8.598;2023-07-20T19:07:59;32.50;30.20
32147;DHT22;32190;49.112;8.598;2023-07-20T19:13:51;32.40;30.00
32147;DHT22;32190;49.112;8.598;2023-07-20T19:19:42;32.30;30.40
32147;DHT22;32190;49.112;8.598;2023-07-20T19:25:48;32.20;30.40
32147;DHT22;32190;49.112;8.598;2023-07-20T19:31:39;32.10;30.50
32147;DHT22;32190;49.112;8.598;2023-07-20T19:37:29;31.90;30.30
32147;DHT22;32190;49.112;8.598;2023-07-20T19:43:20;31.80;30.40
32147;DHT22;32190;49.112;8.598;2023-07-20T19:49:14;31.60;30.50
32147;DHT22;32190;49.112;8.598;2023-07-20T19:55:05;31.50;30.80
32147;DHT22;32190;49.112;8.598;2023-07-20T20:00:56;31.30;30.50
32147;DHT22;32190;49.112;8.598;2023-07-20T20:06:47;31.20;30.60
32147;DHT22;32190;49.112;8.598;2023-07-20T20:12:40;31.00;30.70
32147;DHT22;32190;49.112;8.598;2023-07-20T20:18:30;30.80;30.80
32147;DHT22;32190;49.112;8.598;2023-07-20T20:24:22;30.60;31.00
32147;DHT22;32190;49.112;8.598;2023-07-20T20:30:13;30.40;31.00
32147;DHT22;32190;49.112;8.598;2023-07-20T20:36:04;30.20;31.10
32147;DHT22;32190;49.112;8.598;2023-07-20T20:41:59;30.00;31.40
32147;DHT22;32190;49.112;8.598;2023-07-20T20:47:49;29.70;31.60
32147;DHT22;32190;49.112;8.598;2023-07-20T20:53:40;29.50;31.70
32147;DHT22;32190;49.112;8.598;2023-07-20T20:59:31;29.30;32.10
32147;DHT22;32190;49.112;8.598;2023-07-20T21:05:25;29.10;32.30
32147;DHT22;32190;49.112;8.598;2023-07-20T21:11:15;28.90;32.50
32147;DHT22;32190;49.112;8.598;2023-07-20T21:17:06;28.80;32.60
32147;DHT22;32190;49.112;8.598;2023-07-20T21:22:56;28.70;32.80
32147;DHT22;32190;49.112;8.598;2023-07-20T21:28:47;28.60;32.90
32147;DHT22;32190;49.112;8.598;2023-07-20T21:34:38;28.60;32.90
32147;DHT22;32190;49.112;8.598;2023-07-20T21:40:29;28.50;33.10
32147;DHT22;32190;49.112;8.598;2023-07-20T21:46:19;28.40;33.20
32147;DHT22;32190;49.112;8.598;2023-07-20T21:52:10;28.30;33.60
32147;DHT22;32190;49.112;8.598;2023-07-20T21:58:01;28.10;33.90
32147;DHT22;32190;49.112;8.598;2023-07-20T22:03:51;28.20;33.80
32147;DHT22;32190;49.112;8.598;2023-07-20T22:09:42;28.10;33.70
32147;DHT22;32190;49.112;8.598;2023-07-20T22:15:32;28.10;34.00
32147;DHT22;32190;49.112;8.598;2023-07-20T22:21:23;28.20;34.00
32147;DHT22;32190;49.112;8.598;2023-07-20T22:27:14;28.20;34.00
32147;DHT22;32190;49.112;8.598;2023-07-20T22:33:04;28.20;33.90
32147;DHT22;32190;49.112;8.598;2023-07-20T22:38:55;28.20;33.90
32147;DHT22;32190;49.112;8.598;2023-07-20T22:44:45;28.20;34.00
32147;DHT22;32190;49.112;8.598;2023-07-20T22:50:36;28.20;33.80
32147;DHT22;32190;49.112;8.598;2023-07-20T22:56:26;28.30;33.90
32147;DHT22;32190;49.112;8.598;2023-07-20T23:02:17;28.30;33.90
32147;DHT22;32190;49.112;8.598;2023-07-20T23:08:08;28.30;33.80
32147;DHT22;32190;49.112;8.598;2023-07-20T23:13:59;28.30;33.80
32147;DHT22;32190;49.112;8.598;2023-07-20T23:19:49;28.20;34.10
32147;DHT22;32190;49.112;8.598;2023-07-20T23:25:40;28.00;34.30
32147;DHT22;32190;49.112;8.598;2023-07-20T23:31:30;27.80;34.40
32147;DHT22;32190;49.112;8.598;2023-07-20T23:37:21;27.70;34.90
32147;DHT22;32190;49.112;8.598;2023-07-20T23:43:11;27.60;34.80
32147;DHT22;32190;49.112;8.598;2023-07-20T23:49:02;27.40;34.60
32147;DHT22;32190;49.112;8.598;2023-07-20T23:54:54;27.30;34.80
